Aviation Digital Data Service (ADDS)

Output produced by METARs form (0013 UTC 19 August 2019)
found at http://www.aviationweather.gov/metar/data/
 
Forecast for: TDPD (MELVILLE HALL AR, DM)
Text: TAF TDPD 181700Z 1818/1918 11010KT 9999 BKN014 FEW016CB
Forecast period: 1800 UTC 18 August 2019 to 1800 UTC 19 August 2019
Forecast type: FROM: standard forecast or significant change
Winds: from the ESE (110 degrees) at 12 MPH (10 knots; 5.1 m/s)
Visibility: 6 or more miles 10+ km)
Ceiling: 1400 feet AGL
Clouds: broken clouds at 1400 feet AGL
few clouds at 1600 feet AGL
Weather: no significant weather forecast for this period
Text: PROB40
Forecast period: 1800 UTC 18 August 2019 to 0000 UTC 19 August 2019
Forecast type: TEMPORARY: The following changes expected for less than half the time period
Visibility: 3 miles (5 km)
Ceiling: 1200 feet AGL
Clouds: broken clouds at 1200 feet AGL
few clouds at 1400 feet AGL
scattered clouds at 3400 feet AGL
Weather: TSRA SHRA  (rain associated with thunderstorm(s), rain showers)